createdAt,value
2022-09-26T00:01:08.740Z,16.10
2022-09-26T00:03:36.572Z,16.12
2022-09-26T00:06:04.816Z,16.02
2022-09-26T00:08:32.287Z,15.84
2022-09-26T00:11:01.653Z,15.93
2022-09-26T00:13:29.553Z,15.51
2022-09-26T00:15:57.093Z,15.83
2022-09-26T00:18:24.787Z,15.32
2022-09-26T00:20:52.173Z,14.85
2022-09-26T00:23:19.606Z,15.22
2022-09-26T00:25:51.534Z,15.33
2022-09-26T00:28:18.896Z,15.33
2022-09-26T00:30:46.270Z,14.91
2022-09-26T00:33:14.129Z,15.24
2022-09-26T00:35:41.737Z,14.93
2022-09-26T00:38:09.692Z,15.43
2022-09-26T00:40:37.663Z,15.44
2022-09-26T00:43:05.985Z,15.01
2022-09-26T00:45:33.393Z,15.57
2022-09-26T00:48:03.672Z,15.37
2022-09-26T00:50:40.593Z,15.49
2022-09-26T00:53:18.229Z,15.32
2022-09-26T00:55:48.373Z,15.76
2022-09-26T00:58:27.708Z,15.81
2022-09-26T01:00:55.258Z,15.49
2022-09-26T01:03:22.970Z,15.24
2022-09-26T01:05:50.371Z,15.36
2022-09-26T01:08:19.472Z,15.57
2022-09-26T01:10:47.101Z,15.16
2022-09-26T01:13:14.662Z,15.00
2022-09-26T01:15:42.040Z,15.41
2022-09-26T01:18:09.620Z,15.17
2022-09-26T01:20:49.401Z,15.33
2022-09-26T01:23:41.854Z,15.26
2022-09-26T01:26:34.829Z,15.11
2022-09-26T01:29:11.687Z,15.23
2022-09-26T01:31:43.093Z,15.11
2022-09-26T01:34:24.465Z,14.86
2022-09-26T01:37:05.131Z,14.90
2022-09-26T01:39:51.391Z,15.59
2022-09-26T01:42:37.513Z,15.14
2022-09-26T01:45:13.113Z,15.38
2022-09-26T01:48:18.737Z,14.94
2022-09-26T01:50:50.511Z,14.87
2022-09-26T01:53:28.136Z,15.03
2022-09-26T01:55:59.746Z,15.56
2022-09-26T01:58:31.742Z,15.70
2022-09-26T02:01:01.554Z,15.45
2022-09-26T02:03:32.121Z,15.63
2022-09-26T02:06:03.033Z,15.62
2022-09-26T02:08:36.523Z,15.68
2022-09-26T02:11:18.829Z,15.39
2022-09-26T02:13:57.559Z,15.17
2022-09-26T02:16:48.821Z,14.65
2022-09-26T02:19:24.139Z,14.61
2022-09-26T02:21:51.544Z,15.03
2022-09-26T02:24:19.160Z,15.27
2022-09-26T02:26:46.867Z,15.51
2022-09-26T02:29:14.302Z,15.66
2022-09-26T02:31:56.895Z,15.25
2022-09-26T02:34:24.992Z,15.46
2022-09-26T02:36:53.537Z,15.35
2022-09-26T02:39:21.213Z,15.36
2022-09-26T02:42:25.558Z,15.19
2022-09-26T02:45:21.411Z,15.61
2022-09-26T02:48:04.406Z,15.65
2022-09-26T02:51:06.061Z,15.43
2022-09-26T02:54:12.058Z,15.42
2022-09-26T02:57:04.997Z,15.58
2022-09-26T02:59:40.625Z,15.38
2022-09-26T03:02:15.691Z,15.40
2022-09-26T03:05:00.736Z,15.77
2022-09-26T03:07:36.053Z,15.53
2022-09-26T03:10:05.897Z,15.66
2022-09-26T03:12:33.976Z,15.09
2022-09-26T03:15:01.822Z,14.72
2022-09-26T03:17:29.434Z,15.10
2022-09-26T03:20:05.701Z,15.47
2022-09-26T03:22:36.248Z,15.05
2022-09-26T03:25:03.640Z,15.46
2022-09-26T03:27:32.089Z,15.49
2022-09-26T03:29:59.736Z,15.44
2022-09-26T03:32:29.650Z,15.59
2022-09-26T03:34:57.327Z,15.54
2022-09-26T03:37:24.934Z,15.58
2022-09-26T03:39:52.448Z,15.40
2022-09-26T03:42:20.634Z,15.46
2022-09-26T03:44:48.379Z,15.61
2022-09-26T03:47:18.183Z,15.42
2022-09-26T03:49:47.213Z,15.76
2022-09-26T03:52:14.868Z,15.33
2022-09-26T03:54:42.625Z,15.38
2022-09-26T03:57:14.889Z,15.32
2022-09-26T03:59:43.011Z,15.29
2022-09-26T04:02:11.226Z,15.49
2022-09-26T04:04:39.200Z,15.11
2022-09-26T04:07:06.723Z,15.45
2022-09-26T04:09:34.070Z,15.40
2022-09-26T04:12:01.822Z,15.51
2022-09-26T04:14:29.253Z,15.33
2022-09-26T04:16:58.387Z,15.66
2022-09-26T04:19:26.760Z,15.57
2022-09-26T04:21:54.192Z,15.34
2022-09-26T04:24:21.707Z,15.65
2022-09-26T04:26:49.489Z,15.67
2022-09-26T04:29:16.993Z,14.90
2022-09-26T04:31:45.846Z,15.27
2022-09-26T04:34:14.904Z,15.82
2022-09-26T04:36:42.631Z,15.74
2022-09-26T04:39:10.410Z,15.56
2022-09-26T04:41:38.837Z,14.78
2022-09-26T04:44:06.162Z,15.25
2022-09-26T04:46:33.748Z,15.43
2022-09-26T04:49:01.810Z,15.53
2022-09-26T04:51:29.785Z,15.59
2022-09-26T04:53:57.443Z,15.15
2022-09-26T04:56:26.309Z,15.10
2022-09-26T04:58:56.264Z,14.63
2022-09-26T05:01:24.283Z,15.32
2022-09-26T05:03:53.428Z,15.42
2022-09-26T05:06:20.936Z,15.23
2022-09-26T05:08:49.209Z,15.45
2022-09-26T05:11:18.456Z,15.66
2022-09-26T05:13:49.033Z,15.81
2022-09-26T05:16:20.328Z,15.75
2022-09-26T05:18:51.872Z,15.84
2022-09-26T05:21:19.600Z,15.99
2022-09-26T05:24:05.674Z,15.87
2022-09-26T05:26:41.819Z,15.83
2022-09-26T05:29:09.540Z,15.99
2022-09-26T05:31:39.505Z,15.89
2022-09-26T05:34:08.673Z,16.00
2022-09-26T05:36:36.221Z,16.14
2022-09-26T05:39:26.341Z,15.95
2022-09-26T05:41:54.357Z,16.08
2022-09-26T05:44:21.950Z,15.98
2022-09-26T05:46:50.348Z,16.38
2022-09-26T05:49:17.684Z,16.16
2022-09-26T05:51:46.451Z,16.12
2022-09-26T05:54:14.135Z,16.20
2022-09-26T05:56:42.118Z,16.32
2022-09-26T05:59:10.572Z,16.31
2022-09-26T06:01:46.883Z,16.48
2022-09-26T06:04:15.889Z,16.31
2022-09-26T06:06:47.715Z,16.38
2022-09-26T06:09:17.219Z,16.27
2022-09-26T06:11:45.656Z,16.36
2022-09-26T06:14:13.031Z,16.49
2022-09-26T06:16:40.785Z,16.67
2022-09-26T06:19:08.394Z,16.62
2022-09-26T06:21:39.868Z,16.20
2022-09-26T06:24:09.394Z,15.61
2022-09-26T06:26:40.263Z,15.27
2022-09-26T06:29:07.681Z,15.25
2022-09-26T06:31:35.561Z,15.76
2022-09-26T06:34:05.655Z,16.31
2022-09-26T06:36:33.871Z,16.84
2022-09-26T06:39:02.103Z,16.63
2022-09-26T06:41:30.298Z,16.18
2022-09-26T06:43:57.611Z,15.81
2022-09-26T06:46:27.476Z,16.11
2022-09-26T06:48:55.257Z,16.56
2022-09-26T06:51:23.768Z,16.58
2022-09-26T06:53:51.696Z,16.63
2022-09-26T06:56:19.366Z,16.80
2022-09-26T06:58:49.584Z,16.95
2022-09-26T07:01:18.444Z,17.23
2022-09-26T07:03:47.217Z,17.32
2022-09-26T07:06:15.138Z,17.28
2022-09-26T07:09:01.352Z,17.19
2022-09-26T07:14:19.052Z,17.36
2022-09-26T07:16:48.861Z,17.54
2022-09-26T07:19:17.026Z,17.78
2022-09-26T07:21:46.200Z,17.86
2022-09-26T07:24:16.838Z,17.72
2022-09-26T07:26:44.377Z,18.06
2022-09-26T07:29:12.488Z,17.99
2022-09-26T07:31:40.180Z,17.92
2022-09-26T07:34:08.879Z,17.93
2022-09-26T07:36:39.685Z,17.55
2022-09-26T07:39:07.234Z,18.25
2022-09-26T07:41:34.588Z,18.00
2022-09-26T07:47:09.592Z,18.09
2022-09-26T07:49:56.010Z,18.68
2022-09-26T07:52:23.733Z,18.29
2022-09-26T07:54:51.801Z,18.16
2022-09-26T07:57:19.699Z,18.00
2022-09-26T07:59:50.490Z,18.16
2022-09-26T08:02:26.069Z,17.53
2022-09-26T08:04:58.962Z,18.12
2022-09-26T08:07:29.755Z,17.70
2022-09-26T08:09:58.765Z,17.86
2022-09-26T08:12:27.651Z,16.94
2022-09-26T08:14:56.336Z,17.01
2022-09-26T08:17:24.980Z,17.26
2022-09-26T08:19:52.678Z,17.84
2022-09-26T08:22:20.226Z,17.93
2022-09-26T08:24:49.812Z,17.30
2022-09-26T08:27:18.214Z,16.90
2022-09-26T08:29:48.470Z,17.89
2022-09-26T08:32:17.712Z,17.40
2022-09-26T08:34:45.109Z,17.87
2022-09-26T08:37:16.874Z,17.94
2022-09-26T08:39:44.948Z,17.96
2022-09-26T08:42:17.993Z,17.61
2022-09-26T08:45:24.171Z,17.92
2022-09-26T08:48:06.541Z,18.25
2022-09-26T08:50:51.932Z,18.26
2022-09-26T08:53:24.965Z,18.70
2022-09-26T08:55:53.737Z,18.86
2022-09-26T08:58:28.470Z,18.59
2022-09-26T09:01:00.697Z,17.87
2022-09-26T09:03:36.770Z,17.83
2022-09-26T09:06:11.561Z,18.97
2022-09-26T09:08:42.170Z,18.90
2022-09-26T09:11:28.908Z,19.08
2022-09-26T09:14:02.267Z,19.38
2022-09-26T09:17:03.786Z,19.75
2022-09-26T09:19:53.297Z,19.17
2022-09-26T09:22:44.949Z,19.17
2022-09-26T09:25:23.887Z,18.67
2022-09-26T09:28:00.059Z,19.47
2022-09-26T09:30:37.514Z,19.45
2022-09-26T09:33:14.984Z,19.88
2022-09-26T09:36:02.061Z,19.33
2022-09-26T09:38:31.560Z,19.71
2022-09-26T09:41:07.764Z,19.62
2022-09-26T09:44:00.006Z,19.86
2022-09-26T09:46:39.792Z,19.85
2022-09-26T09:49:10.366Z,19.58
2022-09-26T09:51:56.530Z,19.12
2022-09-26T09:54:41.517Z,19.60
2022-09-26T09:57:28.270Z,18.83
2022-09-26T10:00:08.045Z,19.53
2022-09-26T10:02:44.085Z,19.76
2022-09-26T10:05:42.751Z,20.65
2022-09-26T10:08:27.907Z,19.64
2022-09-26T10:11:13.145Z,20.54
2022-09-26T10:13:43.689Z,19.38
2022-09-26T10:16:15.241Z,20.10
2022-09-26T10:19:00.886Z,18.34
2022-09-26T10:21:40.810Z,18.88
2022-09-26T10:24:24.201Z,19.66
2022-09-26T10:26:54.790Z,19.52
2022-09-26T10:29:35.125Z,19.27
2022-09-26T10:32:02.837Z,19.50
2022-09-26T10:34:31.416Z,19.07
2022-09-26T10:37:20.201Z,18.70
2022-09-26T10:40:14.728Z,19.18
2022-09-26T10:42:47.186Z,19.37
2022-09-26T10:45:21.199Z,19.84
2022-09-26T10:47:52.821Z,20.71
2022-09-26T10:50:28.457Z,20.60
2022-09-26T10:53:02.235Z,20.01
2022-09-26T10:55:32.994Z,20.11
2022-09-26T10:58:11.360Z,20.38
2022-09-26T11:00:46.024Z,19.97
2022-09-26T11:03:16.001Z,19.94
2022-09-26T11:06:00.000Z,20.20
2022-09-26T11:08:32.592Z,20.31
2022-09-26T11:11:04.154Z,20.37
2022-09-26T11:13:48.075Z,19.91
2022-09-26T11:16:16.308Z,19.96
2022-09-26T11:18:59.049Z,20.13
2022-09-26T11:21:42.749Z,20.23
2022-09-26T11:24:24.451Z,20.04
2022-09-26T11:27:19.366Z,20.23
2022-09-26T11:29:55.698Z,19.68
2022-09-26T11:32:28.398Z,18.83
2022-09-26T11:35:02.551Z,19.19
2022-09-26T11:37:55.501Z,19.35
2022-09-26T11:40:27.889Z,19.40
2022-09-26T11:43:17.524Z,19.69
2022-09-26T11:45:54.003Z,19.29
2022-09-26T11:48:48.795Z,19.75
2022-09-26T11:51:38.307Z,19.24
2022-09-26T11:54:28.251Z,19.50
2022-09-26T11:57:27.676Z,20.41
2022-09-26T12:00:08.029Z,19.49
2022-09-26T12:03:00.811Z,20.20
2022-09-26T12:05:53.524Z,19.75
2022-09-26T12:08:42.669Z,19.87
2022-09-26T12:11:34.090Z,20.32
2022-09-26T12:14:26.018Z,20.16
2022-09-26T12:16:59.137Z,20.23
2022-09-26T12:19:45.321Z,18.91
2022-09-26T12:22:29.000Z,18.77
2022-09-26T12:25:10.921Z,18.74
2022-09-26T12:27:44.884Z,17.92
2022-09-26T12:30:21.974Z,18.31
2022-09-26T12:33:24.905Z,18.17
2022-09-26T12:36:04.809Z,17.97
2022-09-26T12:38:47.627Z,18.58
2022-09-26T12:41:38.543Z,18.03
2022-09-26T12:44:22.229Z,18.73
2022-09-26T12:47:08.137Z,19.32
2022-09-26T12:49:38.541Z,19.02
2022-09-26T12:52:15.901Z,19.21
2022-09-26T12:54:56.307Z,19.50
2022-09-26T12:57:38.524Z,19.28
2022-09-26T13:00:23.198Z,19.09
2022-09-26T13:03:09.768Z,19.63
2022-09-26T13:05:52.250Z,19.96
2022-09-26T13:08:43.062Z,19.55
2022-09-26T13:11:19.483Z,19.45
2022-09-26T13:14:09.693Z,19.28
2022-09-26T13:16:46.715Z,19.21
2022-09-26T13:19:23.579Z,19.15
2022-09-26T13:22:00.076Z,19.51
2022-09-26T13:24:34.723Z,19.54
2022-09-26T13:27:12.358Z,19.93
2022-09-26T13:29:39.963Z,19.83
2022-09-26T13:32:25.351Z,20.01
2022-09-26T13:35:03.609Z,19.91
2022-09-26T13:37:57.833Z,19.46
2022-09-26T13:40:41.461Z,19.51
2022-09-26T13:43:24.192Z,19.72
2022-09-26T13:46:28.334Z,19.24
2022-09-26T13:49:25.099Z,19.71
2022-09-26T13:51:58.218Z,20.11
2022-09-26T13:54:27.649Z,20.62
2022-09-26T13:56:55.916Z,20.65
2022-09-26T13:59:32.519Z,20.75
2022-09-26T14:02:18.448Z,20.92
2022-09-26T14:05:17.906Z,21.05
2022-09-26T14:08:10.587Z,20.93
2022-09-26T14:10:39.725Z,20.25
2022-09-26T14:13:09.783Z,20.66
2022-09-26T14:15:49.328Z,20.73
2022-09-26T14:18:54.970Z,20.23
2022-09-26T14:21:38.728Z,19.84
2022-09-26T14:24:21.197Z,19.49
2022-09-26T14:27:10.232Z,19.86
2022-09-26T14:29:42.403Z,20.04
2022-09-26T14:32:10.436Z,20.40
2022-09-26T14:34:54.083Z,19.50
2022-09-26T14:37:24.332Z,19.54
2022-09-26T14:40:05.013Z,19.76
2022-09-26T14:42:38.342Z,19.80
2022-09-26T14:45:07.797Z,19.92
2022-09-26T14:48:15.225Z,19.94
2022-09-26T14:50:53.763Z,20.15
2022-09-26T14:53:25.254Z,19.89
2022-09-26T14:55:59.124Z,20.50
2022-09-26T14:58:38.649Z,19.97
2022-09-26T15:01:24.627Z,20.43
2022-09-26T15:03:55.953Z,20.68
2022-09-26T15:06:24.519Z,19.85
2022-09-26T15:08:52.650Z,20.35
2022-09-26T15:11:32.856Z,20.94
2022-09-26T15:14:03.196Z,19.99
2022-09-26T15:16:33.425Z,19.54
2022-09-26T15:19:12.708Z,19.33
2022-09-26T15:21:43.028Z,19.37
2022-09-26T15:24:23.973Z,20.03
2022-09-26T15:26:51.880Z,19.85
2022-09-26T15:29:19.498Z,19.96
2022-09-26T15:31:47.280Z,19.91
2022-09-26T15:34:20.774Z,20.01
2022-09-26T15:36:55.147Z,20.07
2022-09-26T15:39:31.556Z,20.19
2022-09-26T15:42:24.329Z,20.09
2022-09-26T15:44:58.791Z,20.20
2022-09-26T15:47:29.074Z,20.13
2022-09-26T15:50:03.545Z,19.95
2022-09-26T15:52:33.186Z,20.18
2022-09-26T15:55:00.504Z,20.20
2022-09-26T15:57:27.832Z,20.06
2022-09-26T15:59:55.532Z,20.00
2022-09-26T16:02:24.676Z,19.87
2022-09-26T16:04:52.926Z,19.87
2022-09-26T16:07:23.675Z,19.90
2022-09-26T16:09:51.510Z,19.87
2022-09-26T16:12:23.754Z,19.73
2022-09-26T16:15:08.098Z,19.62
2022-09-26T16:17:40.270Z,19.43
2022-09-26T16:20:13.401Z,19.47
2022-09-26T16:22:45.485Z,19.23
2022-09-26T16:25:15.469Z,19.18
2022-09-26T16:27:43.234Z,19.22
2022-09-26T16:30:28.684Z,19.19
2022-09-26T16:33:13.196Z,19.10
2022-09-26T16:35:47.773Z,19.06
2022-09-26T16:38:24.607Z,18.89
2022-09-26T16:40:56.475Z,18.81
2022-09-26T16:43:26.878Z,18.52
2022-09-26T16:46:11.553Z,18.55
2022-09-26T16:48:51.889Z,18.37
2022-09-26T16:51:40.860Z,18.22
2022-09-26T16:54:08.482Z,18.41
2022-09-26T16:56:38.828Z,18.35
2022-09-26T16:59:24.272Z,18.33
2022-09-26T17:01:56.464Z,18.15
2022-09-26T17:04:28.908Z,17.82
2022-09-26T17:06:57.339Z,17.67
2022-09-26T17:09:29.878Z,17.81
2022-09-26T17:12:05.185Z,17.90
2022-09-26T17:14:40.468Z,17.78
2022-09-26T17:17:16.204Z,17.47
2022-09-26T17:19:46.185Z,17.53
2022-09-26T17:22:14.834Z,17.62
2022-09-26T17:24:43.149Z,17.54
2022-09-26T17:27:17.878Z,17.52
2022-09-26T17:29:48.547Z,17.60
2022-09-26T17:32:32.214Z,17.91
2022-09-26T17:35:01.285Z,17.26
2022-09-26T17:37:28.789Z,16.73
2022-09-26T17:39:56.235Z,16.96
2022-09-26T17:42:24.187Z,16.84
2022-09-26T17:44:51.604Z,16.95
2022-09-26T17:47:19.028Z,16.81
2022-09-26T17:49:49.133Z,16.88
2022-09-26T17:52:26.832Z,16.60
2022-09-26T17:54:57.407Z,16.55
2022-09-26T17:57:29.972Z,16.62
2022-09-26T17:59:57.636Z,16.45
2022-09-26T18:02:47.438Z,16.52
2022-09-26T18:05:29.942Z,16.50
2022-09-26T18:08:04.054Z,16.71
2022-09-26T18:10:33.775Z,16.29
2022-09-26T18:13:02.922Z,16.81
2022-09-26T18:15:30.302Z,16.26
2022-09-26T18:18:00.249Z,16.51
2022-09-26T18:20:34.392Z,16.56
2022-09-26T18:23:03.502Z,16.60
2022-09-26T18:25:30.908Z,16.25
2022-09-26T18:27:58.265Z,16.39
2022-09-26T18:30:26.053Z,16.71
2022-09-26T18:32:54.979Z,16.36
2022-09-26T18:35:27.628Z,16.00
2022-09-26T18:37:55.951Z,16.35
2022-09-26T18:40:23.937Z,16.37
2022-09-26T18:42:51.536Z,16.51
2022-09-26T18:45:30.489Z,16.03
2022-09-26T18:47:57.840Z,15.84
2022-09-26T18:50:29.834Z,16.24
2022-09-26T18:52:57.286Z,16.13
2022-09-26T18:55:43.886Z,16.29
2022-09-26T18:58:24.471Z,16.31
2022-09-26T19:01:00.387Z,16.01
2022-09-26T19:03:29.463Z,16.20
2022-09-26T19:06:02.987Z,16.26
2022-09-26T19:08:35.573Z,16.29
2022-09-26T19:11:13.121Z,16.06
2022-09-26T19:13:41.261Z,16.26
2022-09-26T19:16:09.477Z,16.40
2022-09-26T19:18:37.202Z,16.21
2022-09-26T19:21:06.441Z,16.11
2022-09-26T19:23:35.291Z,15.96
2022-09-26T19:26:03.446Z,16.11
2022-09-26T19:28:32.969Z,16.20
2022-09-26T19:31:00.962Z,16.31
2022-09-26T19:33:28.319Z,16.16
2022-09-26T19:35:55.805Z,16.01
2022-09-26T19:38:25.122Z,15.96
2022-09-26T19:40:53.742Z,15.86
2022-09-26T19:43:21.444Z,15.94
2022-09-26T19:45:51.402Z,15.93
2022-09-26T19:48:20.884Z,15.80
2022-09-26T19:50:48.588Z,15.99
2022-09-26T19:53:17.464Z,16.02
2022-09-26T19:55:45.923Z,15.75
2022-09-26T19:58:18.167Z,15.54
2022-09-26T20:00:48.033Z,16.07
2022-09-26T20:03:17.811Z,16.16
2022-09-26T20:05:49.381Z,16.10
2022-09-26T20:08:25.240Z,15.93
2022-09-26T20:10:56.083Z,15.96
2022-09-26T20:13:23.712Z,15.68
2022-09-26T20:15:51.128Z,15.48
2022-09-26T20:18:21.157Z,15.62
2022-09-26T20:20:54.949Z,15.66
2022-09-26T20:23:24.237Z,15.73
2022-09-26T20:25:52.675Z,15.65
2022-09-26T20:28:20.051Z,15.41
2022-09-26T20:30:54.410Z,15.66
2022-09-26T20:33:22.739Z,15.80
2022-09-26T20:36:02.585Z,15.62
2022-09-26T20:38:38.548Z,15.50
2022-09-26T20:41:13.180Z,15.50
2022-09-26T20:43:41.216Z,14.71
2022-09-26T20:46:09.338Z,14.88
2022-09-26T20:48:37.101Z,15.22
2022-09-26T20:51:04.953Z,15.73
2022-09-26T20:53:32.330Z,15.56
2022-09-26T20:55:59.841Z,15.72
2022-09-26T20:58:28.067Z,15.52
2022-09-26T21:00:55.753Z,15.26
2022-09-26T21:03:25.584Z,15.09
2022-09-26T21:05:53.221Z,15.51
2022-09-26T21:08:26.083Z,16.00
2022-09-26T21:10:54.351Z,15.69
2022-09-26T21:13:22.346Z,15.54
2022-09-26T21:15:49.737Z,15.82
2022-09-26T21:18:23.228Z,15.85
2022-09-26T21:20:51.593Z,15.94
2022-09-26T21:23:20.636Z,16.14
2022-09-26T21:25:48.317Z,16.02
2022-09-26T21:28:26.531Z,16.00
2022-09-26T21:30:58.298Z,16.03
2022-09-26T21:33:25.760Z,16.20
2022-09-26T21:35:53.101Z,16.10
2022-09-26T21:38:20.813Z,15.95
2022-09-26T21:40:53.724Z,16.18
2022-09-26T21:43:22.712Z,16.00
2022-09-26T21:45:50.264Z,16.11
2022-09-26T21:48:17.666Z,16.08
2022-09-26T21:50:56.772Z,16.26
2022-09-26T21:53:36.558Z,16.31
2022-09-26T21:56:07.811Z,16.01
2022-09-26T21:58:36.605Z,16.29
2022-09-26T22:01:04.296Z,16.49
2022-09-26T22:03:32.139Z,16.38
2022-09-26T22:06:03.602Z,16.40
2022-09-26T22:08:33.911Z,16.55
2022-09-26T22:11:03.148Z,16.66
2022-09-26T22:13:30.501Z,16.49
2022-09-26T22:16:07.369Z,16.32
2022-09-26T22:18:35.121Z,16.66
2022-09-26T22:21:04.409Z,16.93
2022-09-26T22:23:32.359Z,16.62
2022-09-26T22:25:59.740Z,16.39
2022-09-26T22:28:27.569Z,16.05
2022-09-26T22:30:55.133Z,16.01
2022-09-26T22:33:22.687Z,15.95
2022-09-26T22:35:50.546Z,16.32
2022-09-26T22:38:20.630Z,16.29
2022-09-26T22:41:01.747Z,16.32
2022-09-26T22:43:29.721Z,16.40
2022-09-26T22:46:04.378Z,16.49
2022-09-26T22:48:33.022Z,16.33
2022-09-26T22:51:00.476Z,16.35
2022-09-26T22:53:27.869Z,16.36
2022-09-26T22:55:55.654Z,16.33
2022-09-26T22:58:23.492Z,15.98
2022-09-26T23:00:51.181Z,16.13
2022-09-26T23:03:18.831Z,16.16
2022-09-26T23:05:51.256Z,16.17
2022-09-26T23:08:18.857Z,16.49
2022-09-26T23:10:50.335Z,15.96
2022-09-26T23:13:18.456Z,16.09
2022-09-26T23:15:46.079Z,16.15
2022-09-26T23:18:13.686Z,16.28
2022-09-26T23:20:42.039Z,16.06
2022-09-26T23:23:10.295Z,16.15
2022-09-26T23:25:41.359Z,16.08
2022-09-26T23:28:08.791Z,16.48
2022-09-26T23:30:36.433Z,16.55
2022-09-26T23:33:03.802Z,16.37
2022-09-26T23:35:31.200Z,16.40
2022-09-26T23:37:58.864Z,16.39
2022-09-26T23:40:26.477Z,16.37
2022-09-26T23:42:53.833Z,16.25
2022-09-26T23:45:21.445Z,16.24
2022-09-26T23:47:49.361Z,16.33
2022-09-26T23:50:16.705Z,16.09
2022-09-26T23:52:44.813Z,16.13
2022-09-26T23:55:12.344Z,16.21
2022-09-26T23:57:39.772Z,16.33
